sensor_id;sensor_type;location;lat;lon;timestamp;pressure;altitude;pressure_sealevel;temperature;humidity
76054;BME280;64752;48.870;9.082;2023-03-25T00:00:58;97500.00;;;8.12;84.62
76054;BME280;64752;48.870;9.082;2023-03-25T00:03:31;97497.78;;;8.01;85.43
76054;BME280;64752;48.870;9.082;2023-03-25T00:06:04;97511.22;;;8.13;83.83
76054;BME280;64752;48.870;9.082;2023-03-25T00:08:31;97518.56;;;8.23;82.51
76054;BME280;64752;48.870;9.082;2023-03-25T00:10:58;97502.13;;;8.26;82.55
76054;BME280;64752;48.870;9.082;2023-03-25T00:13:24;97503.19;;;8.20;82.80
76054;BME280;64752;48.870;9.082;2023-03-25T00:15:50;97503.59;;;8.08;82.85
76054;BME280;64752;48.870;9.082;2023-03-25T00:18:20;97503.69;;;8.05;83.01
76054;BME280;64752;48.870;9.082;2023-03-25T00:20:52;97505.19;;;8.12;82.52
76054;BME280;64752;48.870;9.082;2023-03-25T00:23:19;97508.38;;;7.94;83.99
76054;BME280;64752;48.870;9.082;2023-03-25T00:25:45;97504.28;;;7.86;84.32
76054;BME280;64752;48.870;9.082;2023-03-25T00:28:11;97513.00;;;7.84;84.77
76054;BME280;64752;48.870;9.082;2023-03-25T00:30:38;97512.19;;;7.82;85.27
76054;BME280;64752;48.870;9.082;2023-03-25T00:33:04;97508.97;;;7.75;85.37
76054;BME280;64752;48.870;9.082;2023-03-25T00:35:29;97503.50;;;7.84;85.17
76054;BME280;64752;48.870;9.082;2023-03-25T00:37:55;97502.56;;;7.87;84.48
76054;BME280;64752;48.870;9.082;2023-03-25T00:40:30;97495.41;;;7.95;83.58
76054;BME280;64752;48.870;9.082;2023-03-25T00:43:00;97497.28;;;7.90;84.54
76054;BME280;64752;48.870;9.082;2023-03-25T00:45:25;97491.63;;;7.79;84.72
76054;BME280;64752;48.870;9.082;2023-03-25T00:47:51;97498.81;;;7.70;85.92
76054;BME280;64752;48.870;9.082;2023-03-25T00:50:17;97486.16;;;7.63;86.15
76054;BME280;64752;48.870;9.082;2023-03-25T00:52:42;97489.41;;;7.68;85.51
76054;BME280;64752;48.870;9.082;2023-03-25T00:55:08;97488.94;;;7.55;85.34
76054;BME280;64752;48.870;9.082;2023-03-25T00:57:33;97477.09;;;7.49;85.64
76054;BME280;64752;48.870;9.082;2023-03-25T00:59:59;97479.81;;;7.45;85.47
76054;BME280;64752;48.870;9.082;2023-03-25T01:02:24;97478.31;;;7.38;85.53
76054;BME280;64752;48.870;9.082;2023-03-25T01:04:50;97478.22;;;7.41;85.05
76054;BME280;64752;48.870;9.082;2023-03-25T01:07:17;97474.16;;;7.33;85.19
76054;BME280;64752;48.870;9.082;2023-03-25T01:09:46;97478.03;;;7.19;86.16
76054;BME280;64752;48.870;9.082;2023-03-25T01:12:14;97481.59;;;7.14;86.39
76054;BME280;64752;48.870;9.082;2023-03-25T01:14:40;97476.47;;;7.13;86.29
76054;BME280;64752;48.870;9.082;2023-03-25T01:17:06;97476.38;;;7.16;86.55
76054;BME280;64752;48.870;9.082;2023-03-25T01:19:31;97484.41;;;7.07;86.43
76054;BME280;64752;48.870;9.082;2023-03-25T01:21:57;97488.69;;;7.08;86.62
76054;BME280;64752;48.870;9.082;2023-03-25T01:24:22;97475.97;;;7.30;84.63
76054;BME280;64752;48.870;9.082;2023-03-25T01:26:48;97472.59;;;7.28;85.04
76054;BME280;64752;48.870;9.082;2023-03-25T01:29:16;97466.75;;;7.23;85.28
76054;BME280;64752;48.870;9.082;2023-03-25T01:31:42;97462.50;;;7.20;85.20
76054;BME280;64752;48.870;9.082;2023-03-25T01:34:07;97456.59;;;7.17;85.63
76054;BME280;64752;48.870;9.082;2023-03-25T01:36:33;97456.78;;;7.10;85.79
76054;BME280;64752;48.870;9.082;2023-03-25T01:39:01;97464.97;;;7.25;84.81
76054;BME280;64752;48.870;9.082;2023-03-25T01:41:27;97454.47;;;7.29;84.41
76054;BME280;64752;48.870;9.082;2023-03-25T01:46:27;97468.84;;;7.38;83.05
76054;BME280;64752;48.870;9.082;2023-03-25T01:48:53;97471.41;;;7.38;83.30
76054;BME280;64752;48.870;9.082;2023-03-25T01:51:28;97465.38;;;7.39;82.72
76054;BME280;64752;48.870;9.082;2023-03-25T01:53:55;97461.34;;;7.30;82.95
76054;BME280;64752;48.870;9.082;2023-03-25T01:56:26;97455.44;;;7.27;83.70
76054;BME280;64752;48.870;9.082;2023-03-25T01:58:55;97449.25;;;7.32;83.19
76054;BME280;64752;48.870;9.082;2023-03-25T02:01:23;97440.97;;;7.23;83.18
76054;BME280;64752;48.870;9.082;2023-03-25T02:03:50;97434.94;;;7.22;83.34
76054;BME280;64752;48.870;9.082;2023-03-25T02:06:23;97435.59;;;7.29;82.34
76054;BME280;64752;48.870;9.082;2023-03-25T02:08:55;97429.94;;;7.18;83.82
76054;BME280;64752;48.870;9.082;2023-03-25T02:11:22;97415.47;;;7.13;83.35
76054;BME280;64752;48.870;9.082;2023-03-25T02:13:53;97429.97;;;7.16;83.76
76054;BME280;64752;48.870;9.082;2023-03-25T02:16:27;97433.06;;;7.27;83.46
76054;BME280;64752;48.870;9.082;2023-03-25T02:33:17;97531.09;;;7.26;86.93
76054;BME280;64752;48.870;9.082;2023-03-25T02:36:20;97526.44;;;6.13;88.79
76054;BME280;64752;48.870;9.082;2023-03-25T02:38:51;57492.53;;;-146.59;100.00
76054;BME280;64752;48.870;9.082;2023-03-25T02:41:27;57492.53;;;-146.59;100.00
76054;BME280;64752;48.870;9.082;2023-03-25T02:44:19;57492.53;;;-146.59;100.00
76054;BME280;64752;48.870;9.082;2023-03-25T02:46:50;57492.53;;;-146.59;100.00
76054;BME280;64752;48.870;9.082;2023-03-25T02:49:24;57492.53;;;-146.59;100.00
76054;BME280;64752;48.870;9.082;2023-03-25T02:51:57;57492.53;;;-146.59;100.00
76054;BME280;64752;48.870;9.082;2023-03-25T02:54:26;57492.53;;;-146.59;0.00
76054;BME280;64752;48.870;9.082;2023-03-25T02:56:54;57559.19;;;-146.59;100.00
76054;BME280;64752;48.870;9.082;2023-03-25T02:59:22;57492.53;;;-146.59;100.00
76054;BME280;64752;48.870;9.082;2023-03-25T03:01:49;57492.53;;;-146.59;100.00
76054;BME280;64752;48.870;9.082;2023-03-25T03:04:14;57492.53;;;-146.59;100.00
76054;BME280;64752;48.870;9.082;2023-03-25T03:06:41;57492.53;;;-146.59;100.00
76054;BME280;64752;48.870;9.082;2023-03-25T03:09:13;57492.53;;;-146.59;100.00
76054;BME280;64752;48.870;9.082;2023-03-25T03:11:48;57492.53;;;-146.59;100.00
76054;BME280;64752;48.870;9.082;2023-03-25T03:17:19;57492.53;;;-146.59;100.00
76054;BME280;64752;48.870;9.082;2023-03-25T03:19:55;57492.53;;;-146.59;100.00
76054;BME280;64752;48.870;9.082;2023-03-25T03:27:34;57492.53;;;-146.59;100.00
76054;BME280;64752;48.870;9.082;2023-03-25T03:35:10;57492.53;;;-146.59;100.00
76054;BME280;64752;48.870;9.082;2023-03-25T03:37:46;57492.53;;;-146.59;100.00
76054;BME280;64752;48.870;9.082;2023-03-25T03:40:18;57492.53;;;-146.59;100.00
76054;BME280;64752;48.870;9.082;2023-03-25T03:45:46;57492.53;;;-146.59;100.00
76054;BME280;64752;48.870;9.082;2023-03-25T03:48:18;57492.53;;;-146.59;100.00
76054;BME280;64752;48.870;9.082;2023-03-25T03:50:51;57492.53;;;-146.59;100.00
76054;BME280;64752;48.870;9.082;2023-03-25T03:53:34;57492.53;;;-146.59;100.00
76054;BME280;64752;48.870;9.082;2023-03-25T03:58:33;57492.53;;;-146.59;100.00
76054;BME280;64752;48.870;9.082;2023-03-25T04:01:21;57492.53;;;-146.59;100.00
76054;BME280;64752;48.870;9.082;2023-03-25T04:04:15;57492.53;;;-146.59;100.00
76054;BME280;64752;48.870;9.082;2023-03-25T04:09:57;57492.53;;;-146.59;100.00
76054;BME280;64752;48.870;9.082;2023-03-25T04:12:37;57492.53;;;-146.59;100.00
76054;BME280;64752;48.870;9.082;2023-03-25T04:15:06;57492.53;;;-146.59;100.00
76054;BME280;64752;48.870;9.082;2023-03-25T04:17:32;57492.53;;;-146.59;100.00
76054;BME280;64752;48.870;9.082;2023-03-25T04:19:58;57492.53;;;-146.59;100.00
76054;BME280;64752;48.870;9.082;2023-03-25T04:22:24;57492.53;;;-146.59;100.00
76054;BME280;64752;48.870;9.082;2023-03-25T04:24:50;57492.53;;;-146.59;100.00
76054;BME280;64752;48.870;9.082;2023-03-25T04:27:17;57492.53;;;-146.59;100.00
76054;BME280;64752;48.870;9.082;2023-03-25T04:29:43;57492.53;;;-146.59;100.00
76054;BME280;64752;48.870;9.082;2023-03-25T04:32:12;57492.53;;;-146.59;100.00
76054;BME280;64752;48.870;9.082;2023-03-25T04:34:38;57492.53;;;-146.59;100.00
76054;BME280;64752;48.870;9.082;2023-03-25T04:37:04;57492.53;;;-146.59;100.00
76054;BME280;64752;48.870;9.082;2023-03-25T04:39:29;57492.53;;;-146.59;100.00
76054;BME280;64752;48.870;9.082;2023-03-25T04:41:57;57492.53;;;-146.59;100.00
76054;BME280;64752;48.870;9.082;2023-03-25T04:44:26;57492.53;;;-146.59;100.00
76054;BME280;64752;48.870;9.082;2023-03-25T04:46:53;57492.53;;;-146.59;100.00
76054;BME280;64752;48.870;9.082;2023-03-25T04:49:21;57492.53;;;-146.59;100.00
76054;BME280;64752;48.870;9.082;2023-03-25T04:51:48;57492.53;;;-146.59;100.00
76054;BME280;64752;48.870;9.082;2023-03-25T04:54:18;57492.53;;;-146.59;100.00
76054;BME280;64752;48.870;9.082;2023-03-25T04:56:44;57492.53;;;-146.59;100.00
76054;BME280;64752;48.870;9.082;2023-03-25T04:59:12;57492.53;;;-146.59;100.00
76054;BME280;64752;48.870;9.082;2023-03-25T05:01:38;57492.53;;;-146.59;100.00
76054;BME280;64752;48.870;9.082;2023-03-25T05:04:07;57492.53;;;-146.59;100.00
76054;BME280;64752;48.870;9.082;2023-03-25T05:06:45;57492.53;;;-146.59;100.00
76054;BME280;64752;48.870;9.082;2023-03-25T05:09:16;57492.53;;;-146.59;100.00
76054;BME280;64752;48.870;9.082;2023-03-25T05:11:44;57492.53;;;-146.59;100.00
76054;BME280;64752;48.870;9.082;2023-03-25T05:14:11;57492.53;;;-146.59;100.00
76054;BME280;64752;48.870;9.082;2023-03-25T05:16:38;57492.53;;;-146.59;100.00
76054;BME280;64752;48.870;9.082;2023-03-25T05:19:05;57492.53;;;-146.59;100.00
76054;BME280;64752;48.870;9.082;2023-03-25T05:21:31;57492.53;;;-146.59;100.00
76054;BME280;64752;48.870;9.082;2023-03-25T05:23:57;57492.53;;;-146.59;100.00
76054;BME280;64752;48.870;9.082;2023-03-25T05:26:23;57492.53;;;-146.59;100.00
76054;BME280;64752;48.870;9.082;2023-03-25T05:28:49;57492.53;;;-146.59;100.00
76054;BME280;64752;48.870;9.082;2023-03-25T05:31:16;57492.53;;;-146.59;100.00
76054;BME280;64752;48.870;9.082;2023-03-25T05:33:41;57492.53;;;-146.59;100.00
76054;BME280;64752;48.870;9.082;2023-03-25T05:36:16;57492.53;;;-146.59;100.00
76054;BME280;64752;48.870;9.082;2023-03-25T05:38:41;57492.53;;;-146.59;100.00
76054;BME280;64752;48.870;9.082;2023-03-25T05:41:10;57492.53;;;-146.59;100.00
76054;BME280;64752;48.870;9.082;2023-03-25T05:43:41;57492.53;;;-146.59;100.00
76054;BME280;64752;48.870;9.082;2023-03-25T05:46:14;57492.53;;;-146.59;100.00
76054;BME280;64752;48.870;9.082;2023-03-25T05:48:40;57492.53;;;-146.59;100.00
76054;BME280;64752;48.870;9.082;2023-03-25T05:51:11;57492.53;;;-146.59;100.00
76054;BME280;64752;48.870;9.082;2023-03-25T05:53:43;57492.53;;;-146.59;100.00
76054;BME280;64752;48.870;9.082;2023-03-25T05:56:12;57492.53;;;-146.59;100.00
76054;BME280;64752;48.870;9.082;2023-03-25T05:58:37;57492.53;;;-146.59;100.00
76054;BME280;64752;48.870;9.082;2023-03-25T06:01:06;57492.53;;;-146.59;100.00
76054;BME280;64752;48.870;9.082;2023-03-25T06:03:31;57492.53;;;-146.59;100.00
76054;BME280;64752;48.870;9.082;2023-03-25T06:05:59;57492.53;;;-146.59;100.00
76054;BME280;64752;48.870;9.082;2023-03-25T06:08:25;57492.53;;;-146.59;100.00
76054;BME280;64752;48.870;9.082;2023-03-25T06:10:56;57492.53;;;-146.59;100.00
76054;BME280;64752;48.870;9.082;2023-03-25T06:13:25;57492.53;;;-146.59;100.00
76054;BME280;64752;48.870;9.082;2023-03-25T06:15:51;57492.53;;;-146.59;100.00
76054;BME280;64752;48.870;9.082;2023-03-25T06:18:23;57492.53;;;-146.59;100.00
76054;BME280;64752;48.870;9.082;2023-03-25T06:20:51;57492.53;;;-146.59;100.00
76054;BME280;64752;48.870;9.082;2023-03-25T06:23:18;57492.53;;;-146.59;100.00
76054;BME280;64752;48.870;9.082;2023-03-25T06:25:47;57492.53;;;-146.59;100.00
76054;BME280;64752;48.870;9.082;2023-03-25T06:28:12;57492.53;;;-146.59;100.00
76054;BME280;64752;48.870;9.082;2023-03-25T06:30:37;57492.53;;;-146.59;100.00
76054;BME280;64752;48.870;9.082;2023-03-25T06:33:03;57492.53;;;-146.59;100.00
76054;BME280;64752;48.870;9.082;2023-03-25T06:35:30;57492.53;;;-146.59;100.00
76054;BME280;64752;48.870;9.082;2023-03-25T06:37:55;57492.53;;;-146.59;100.00
76054;BME280;64752;48.870;9.082;2023-03-25T06:40:21;57492.53;;;-146.59;100.00
76054;BME280;64752;48.870;9.082;2023-03-25T06:42:48;57492.53;;;-146.59;100.00
76054;BME280;64752;48.870;9.082;2023-03-25T06:45:13;57492.53;;;-146.59;100.00
76054;BME280;64752;48.870;9.082;2023-03-25T06:47:40;57492.53;;;-146.59;100.00
76054;BME280;64752;48.870;9.082;2023-03-25T06:50:06;57492.53;;;-146.59;100.00
76054;BME280;64752;48.870;9.082;2023-03-25T06:52:31;57492.53;;;-146.59;100.00
76054;BME280;64752;48.870;9.082;2023-03-25T06:54:59;57492.53;;;-146.59;100.00
76054;BME280;64752;48.870;9.082;2023-03-25T06:57:24;57492.53;;;-146.59;100.00
76054;BME280;64752;48.870;9.082;2023-03-25T06:59:50;57492.53;;;-146.59;100.00
76054;BME280;64752;48.870;9.082;2023-03-25T07:02:15;57492.53;;;-146.59;100.00
76054;BME280;64752;48.870;9.082;2023-03-25T07:04:40;57492.53;;;-146.59;100.00
76054;BME280;64752;48.870;9.082;2023-03-25T07:07:07;57492.53;;;-146.59;100.00
76054;BME280;64752;48.870;9.082;2023-03-25T07:09:32;57492.53;;;-146.59;100.00
76054;BME280;64752;48.870;9.082;2023-03-25T07:11:57;57492.53;;;-146.59;100.00
76054;BME280;64752;48.870;9.082;2023-03-25T07:14:23;57492.53;;;-146.59;100.00
76054;BME280;64752;48.870;9.082;2023-03-25T07:16:48;57492.53;;;-146.59;100.00
76054;BME280;64752;48.870;9.082;2023-03-25T07:19:14;57492.53;;;-146.59;100.00
76054;BME280;64752;48.870;9.082;2023-03-25T07:21:40;57492.53;;;-146.59;100.00
76054;BME280;64752;48.870;9.082;2023-03-25T07:24:05;57492.53;;;-146.59;100.00
76054;BME280;64752;48.870;9.082;2023-03-25T07:26:31;57492.53;;;-146.59;100.00
76054;BME280;64752;48.870;9.082;2023-03-25T07:28:57;57492.53;;;-146.59;100.00
76054;BME280;64752;48.870;9.082;2023-03-25T07:31:22;57492.53;;;-146.59;100.00
76054;BME280;64752;48.870;9.082;2023-03-25T07:33:48;57492.53;;;-146.59;100.00
76054;BME280;64752;48.870;9.082;2023-03-25T07:36:13;57492.53;;;-146.59;100.00
76054;BME280;64752;48.870;9.082;2023-03-25T07:38:38;57492.53;;;-146.59;100.00
76054;BME280;64752;48.870;9.082;2023-03-25T07:41:06;57492.53;;;-146.59;100.00
76054;BME280;64752;48.870;9.082;2023-03-25T07:43:32;57492.53;;;-146.59;100.00
76054;BME280;64752;48.870;9.082;2023-03-25T07:45:57;57492.53;;;-146.59;100.00
76054;BME280;64752;48.870;9.082;2023-03-25T07:48:23;57492.53;;;-146.59;100.00
76054;BME280;64752;48.870;9.082;2023-03-25T07:50:50;57492.53;;;-146.59;100.00
76054;BME280;64752;48.870;9.082;2023-03-25T07:53:15;57492.53;;;-146.59;100.00
76054;BME280;64752;48.870;9.082;2023-03-25T07:55:41;57492.53;;;-146.59;100.00
76054;BME280;64752;48.870;9.082;2023-03-25T07:58:06;57492.53;;;-146.59;100.00
76054;BME280;64752;48.870;9.082;2023-03-25T08:00:32;57492.53;;;-146.59;100.00
76054;BME280;64752;48.870;9.082;2023-03-25T08:02:57;57492.53;;;-146.59;100.00
76054;BME280;64752;48.870;9.082;2023-03-25T08:05:23;57492.53;;;-146.59;100.00
76054;BME280;64752;48.870;9.082;2023-03-25T08:07:52;57492.53;;;-146.59;100.00
76054;BME280;64752;48.870;9.082;2023-03-25T08:10:18;57492.53;;;-146.59;100.00
76054;BME280;64752;48.870;9.082;2023-03-25T08:12:44;57492.53;;;-146.59;100.00
76054;BME280;64752;48.870;9.082;2023-03-25T08:15:10;57492.53;;;-146.59;100.00
76054;BME280;64752;48.870;9.082;2023-03-25T08:17:37;57492.53;;;-146.59;100.00
76054;BME280;64752;48.870;9.082;2023-03-25T08:20:03;57492.53;;;-146.59;100.00
76054;BME280;64752;48.870;9.082;2023-03-25T08:22:30;57492.53;;;-146.59;100.00
76054;BME280;64752;48.870;9.082;2023-03-25T08:24:55;57492.53;;;-146.59;100.00
76054;BME280;64752;48.870;9.082;2023-03-25T08:27:21;57492.53;;;-146.59;100.00
76054;BME280;64752;48.870;9.082;2023-03-25T08:29:46;57492.53;;;-146.59;100.00
76054;BME280;64752;48.870;9.082;2023-03-25T08:32:21;57492.53;;;-146.59;100.00
76054;BME280;64752;48.870;9.082;2023-03-25T08:34:47;57492.53;;;-146.59;100.00
76054;BME280;64752;48.870;9.082;2023-03-25T08:37:12;57492.53;;;-146.59;100.00
76054;BME280;64752;48.870;9.082;2023-03-25T08:39:39;57492.53;;;-146.59;100.00
76054;BME280;64752;48.870;9.082;2023-03-25T08:42:07;57492.53;;;-146.59;100.00
76054;BME280;64752;48.870;9.082;2023-03-25T08:44:32;57492.53;;;-146.59;100.00
76054;BME280;64752;48.870;9.082;2023-03-25T08:46:58;57492.53;;;-146.59;100.00
76054;BME280;64752;48.870;9.082;2023-03-25T08:49:23;57492.53;;;-146.59;100.00
76054;BME280;64752;48.870;9.082;2023-03-25T08:51:48;57492.53;;;-146.59;100.00
76054;BME280;64752;48.870;9.082;2023-03-25T08:54:14;57492.53;;;-146.59;100.00
76054;BME280;64752;48.870;9.082;2023-03-25T08:56:40;57492.53;;;-146.59;100.00
76054;BME280;64752;48.870;9.082;2023-03-25T08:59:05;57492.53;;;-146.59;100.00
76054;BME280;64752;48.870;9.082;2023-03-25T09:01:30;57492.53;;;-146.59;100.00
76054;BME280;64752;48.870;9.082;2023-03-25T09:03:56;57492.53;;;-146.59;100.00
76054;BME280;64752;48.870;9.082;2023-03-25T09:06:22;57492.53;;;-146.59;100.00
76054;BME280;64752;48.870;9.082;2023-03-25T09:08:47;57492.53;;;-146.59;100.00
76054;BME280;64752;48.870;9.082;2023-03-25T09:11:13;57492.53;;;-146.59;100.00
76054;BME280;64752;48.870;9.082;2023-03-25T09:13:39;57492.53;;;-146.59;100.00
76054;BME280;64752;48.870;9.082;2023-03-25T09:16:06;57492.53;;;-146.59;100.00
76054;BME280;64752;48.870;9.082;2023-03-25T09:18:31;57492.53;;;-146.59;100.00
76054;BME280;64752;48.870;9.082;2023-03-25T09:21:00;57492.53;;;-146.59;100.00
76054;BME280;64752;48.870;9.082;2023-03-25T09:23:25;57492.53;;;-146.59;100.00
76054;BME280;64752;48.870;9.082;2023-03-25T09:25:51;57492.53;;;-146.59;100.00
76054;BME280;64752;48.870;9.082;2023-03-25T09:28:19;57492.53;;;-146.59;100.00
76054;BME280;64752;48.870;9.082;2023-03-25T09:30:44;57492.53;;;-146.59;100.00
76054;BME280;64752;48.870;9.082;2023-03-25T09:33:10;57492.53;;;-146.59;100.00
76054;BME280;64752;48.870;9.082;2023-03-25T09:35:38;57492.53;;;-146.59;100.00
76054;BME280;64752;48.870;9.082;2023-03-25T09:38:03;57492.53;;;-146.59;100.00
76054;BME280;64752;48.870;9.082;2023-03-25T09:40:29;57492.53;;;-146.59;100.00
76054;BME280;64752;48.870;9.082;2023-03-25T09:45:42;57492.53;;;-146.59;100.00
76054;BME280;64752;48.870;9.082;2023-03-25T09:50:38;57492.53;;;-146.59;100.00
76054;BME280;64752;48.870;9.082;2023-03-25T09:55:42;57492.53;;;-146.59;100.00
76054;BME280;64752;48.870;9.082;2023-03-25T10:00:43;57492.53;;;-146.59;100.00
76054;BME280;64752;48.870;9.082;2023-03-25T10:03:26;57492.53;;;-146.59;100.00
76054;BME280;64752;48.870;9.082;2023-03-25T10:14:10;57492.53;;;-146.59;100.00
76054;BME280;64752;48.870;9.082;2023-03-25T10:17:01;57492.53;;;-146.59;100.00
76054;BME280;64752;48.870;9.082;2023-03-25T10:24:51;57492.53;;;-146.59;100.00
76054;BME280;64752;48.870;9.082;2023-03-25T10:27:31;57492.53;;;-146.59;100.00
76054;BME280;64752;48.870;9.082;2023-03-25T10:32:48;57492.53;;;-146.59;100.00
76054;BME280;64752;48.870;9.082;2023-03-25T10:35:19;57492.53;;;-146.59;100.00
76054;BME280;64752;48.870;9.082;2023-03-25T10:37:46;57492.53;;;-146.59;100.00
76054;BME280;64752;48.870;9.082;2023-03-25T10:40:26;57492.53;;;-146.59;100.00
76054;BME280;64752;48.870;9.082;2023-03-25T10:45:41;57492.53;;;-146.59;100.00
76054;BME280;64752;48.870;9.082;2023-03-25T10:48:25;57492.53;;;-146.59;100.00
76054;BME280;64752;48.870;9.082;2023-03-25T10:51:00;57492.53;;;-146.59;100.00
76054;BME280;64752;48.870;9.082;2023-03-25T10:53:27;57492.53;;;-146.59;100.00
76054;BME280;64752;48.870;9.082;2023-03-25T10:56:06;57492.53;;;-146.59;100.00
76054;BME280;64752;48.870;9.082;2023-03-25T10:58:33;57492.53;;;-146.59;100.00
76054;BME280;64752;48.870;9.082;2023-03-25T11:01:09;57492.53;;;-146.59;100.00
76054;BME280;64752;48.870;9.082;2023-03-25T11:03:36;57492.53;;;-146.59;100.00
76054;BME280;64752;48.870;9.082;2023-03-25T11:06:03;57492.53;;;-146.59;100.00
76054;BME280;64752;48.870;9.082;2023-03-25T11:08:30;57492.53;;;-146.59;100.00
76054;BME280;64752;48.870;9.082;2023-03-25T11:10:55;57492.53;;;-146.59;100.00
76054;BME280;64752;48.870;9.082;2023-03-25T11:13:31;57492.53;;;-146.59;100.00
76054;BME280;64752;48.870;9.082;2023-03-25T11:16:01;57492.53;;;-146.59;100.00
76054;BME280;64752;48.870;9.082;2023-03-25T11:18:29;57492.53;;;-146.59;100.00
76054;BME280;64752;48.870;9.082;2023-03-25T11:21:07;57492.53;;;-146.59;100.00
76054;BME280;64752;48.870;9.082;2023-03-25T11:23:35;57492.53;;;-146.59;100.00
76054;BME280;64752;48.870;9.082;2023-03-25T11:26:23;57492.53;;;-146.59;100.00
76054;BME280;64752;48.870;9.082;2023-03-25T11:29:00;57492.53;;;-146.59;100.00
76054;BME280;64752;48.870;9.082;2023-03-25T11:31:28;57492.53;;;-146.59;100.00
76054;BME280;64752;48.870;9.082;2023-03-25T11:36:39;57492.53;;;-146.59;100.00
76054;BME280;64752;48.870;9.082;2023-03-25T11:41:44;57492.53;;;-146.59;100.00
76054;BME280;64752;48.870;9.082;2023-03-25T11:44:30;57492.53;;;-146.59;100.00
76054;BME280;64752;48.870;9.082;2023-03-25T11:47:06;57492.53;;;-146.59;100.00
76054;BME280;64752;48.870;9.082;2023-03-25T11:49:37;57492.53;;;-146.59;100.00
76054;BME280;64752;48.870;9.082;2023-03-25T11:52:07;57492.53;;;-146.59;100.00
76054;BME280;64752;48.870;9.082;2023-03-25T11:54:34;57492.53;;;-146.59;100.00
76054;BME280;64752;48.870;9.082;2023-03-25T11:57:03;57492.53;;;-146.59;100.00
76054;BME280;64752;48.870;9.082;2023-03-25T11:59:42;57492.53;;;-146.59;100.00
76054;BME280;64752;48.870;9.082;2023-03-25T12:02:25;57492.53;;;-146.59;100.00
76054;BME280;64752;48.870;9.082;2023-03-25T12:08:17;57492.53;;;-146.59;100.00
76054;BME280;64752;48.870;9.082;2023-03-25T12:11:05;57492.53;;;-146.59;100.00
76054;BME280;64752;48.870;9.082;2023-03-25T12:13:51;57492.53;;;-146.59;100.00
76054;BME280;64752;48.870;9.082;2023-03-25T12:19:33;57492.53;;;-146.59;100.00
76054;BME280;64752;48.870;9.082;2023-03-25T12:22:22;57492.53;;;-146.59;100.00
76054;BME280;64752;48.870;9.082;2023-03-25T12:28:13;57492.53;;;-146.59;100.00
76054;BME280;64752;48.870;9.082;2023-03-25T12:30:51;57492.53;;;-146.59;100.00
76054;BME280;64752;48.870;9.082;2023-03-25T12:33:34;57492.53;;;-146.59;100.00
76054;BME280;64752;48.870;9.082;2023-03-25T13:01:56;57492.53;;;-146.59;100.00
76054;BME280;64752;48.870;9.082;2023-03-25T13:07:24;57492.53;;;-146.59;100.00
76054;BME280;64752;48.870;9.082;2023-03-25T13:10:14;57492.53;;;-146.59;100.00
76054;BME280;64752;48.870;9.082;2023-03-25T13:13:07;57492.53;;;-146.59;100.00
76054;BME280;64752;48.870;9.082;2023-03-25T13:15:38;57492.53;;;-146.59;100.00
76054;BME280;64752;48.870;9.082;2023-03-25T13:18:21;57492.53;;;-146.59;100.00
76054;BME280;64752;48.870;9.082;2023-03-25T13:21:09;57492.53;;;-146.59;100.00
76054;BME280;64752;48.870;9.082;2023-03-25T13:23:35;57492.53;;;-146.59;100.00
76054;BME280;64752;48.870;9.082;2023-03-25T13:26:16;57492.53;;;-146.59;100.00
76054;BME280;64752;48.870;9.082;2023-03-25T13:28:46;57492.53;;;-146.59;100.00
76054;BME280;64752;48.870;9.082;2023-03-25T13:31:16;57492.53;;;-146.59;100.00
76054;BME280;64752;48.870;9.082;2023-03-25T13:34:33;57492.53;;;-146.59;100.00
76054;BME280;64752;48.870;9.082;2023-03-25T13:36:35;57492.53;;;-146.59;100.00
76054;BME280;64752;48.870;9.082;2023-03-25T13:39:12;57492.53;;;-146.59;100.00
76054;BME280;64752;48.870;9.082;2023-03-25T13:41:46;57492.53;;;-146.59;100.00
76054;BME280;64752;48.870;9.082;2023-03-25T13:44:25;57492.53;;;-146.59;100.00
76054;BME280;64752;48.870;9.082;2023-03-25T13:47:17;57492.53;;;-146.59;100.00
76054;BME280;64752;48.870;9.082;2023-03-25T13:49:57;57492.53;;;-146.59;100.00
76054;BME280;64752;48.870;9.082;2023-03-25T13:52:31;57492.53;;;-146.59;100.00
76054;BME280;64752;48.870;9.082;2023-03-25T13:55:03;57492.53;;;-146.59;100.00
76054;BME280;64752;48.870;9.082;2023-03-25T13:57:54;57492.53;;;-146.59;100.00
76054;BME280;64752;48.870;9.082;2023-03-25T14:00:47;57492.53;;;-146.59;100.00
76054;BME280;64752;48.870;9.082;2023-03-25T14:06:39;57492.53;;;-146.59;100.00
76054;BME280;64752;48.870;9.082;2023-03-25T14:12:16;57492.53;;;-146.59;100.00
76054;BME280;64752;48.870;9.082;2023-03-25T14:14:59;57492.53;;;-146.59;100.00
76054;BME280;64752;48.870;9.082;2023-03-25T14:17:27;57492.53;;;-146.59;100.00
76054;BME280;64752;48.870;9.082;2023-03-25T14:19:56;57492.53;;;-146.59;100.00
76054;BME280;64752;48.870;9.082;2023-03-25T14:22:28;57492.53;;;-146.59;100.00
76054;BME280;64752;48.870;9.082;2023-03-25T14:24:56;57492.53;;;-146.59;100.00
76054;BME280;64752;48.870;9.082;2023-03-25T14:30:18;57492.53;;;-146.59;100.00
76054;BME280;64752;48.870;9.082;2023-03-25T14:32:45;57492.53;;;-146.59;100.00
76054;BME280;64752;48.870;9.082;2023-03-25T14:40:52;57492.53;;;-146.59;100.00
76054;BME280;64752;48.870;9.082;2023-03-25T14:43:24;57492.53;;;-146.59;100.00
76054;BME280;64752;48.870;9.082;2023-03-25T14:45:58;57492.53;;;-146.59;100.00
76054;BME280;64752;48.870;9.082;2023-03-25T14:48:29;57492.53;;;-146.59;100.00
76054;BME280;64752;48.870;9.082;2023-03-25T14:57:06;57492.53;;;-146.59;100.00
76054;BME280;64752;48.870;9.082;2023-03-25T14:59:42;57492.53;;;-146.59;100.00
76054;BME280;64752;48.870;9.082;2023-03-25T15:04:39;57492.53;;;-146.59;100.00
76054;BME280;64752;48.870;9.082;2023-03-25T15:07:10;57492.53;;;-146.59;100.00